<?xml version="1.0" encoding="UTF-8" standalone="no" ?>
<gpx xmlns="http://www.topografix.com/GPX/1/1" xmlns:xsi="http://www.w3.org/2001/XMLSchema-instance" xsi:schemaLocation="http://www.topografix.com/GPX/1/1 http://www.topografix.com/GPX/1/1/gpx.xsd" version="1.1" creator="VisuGPX - https://www.visugpx.com">
  <metadata>
    <name>VOK ste-foy-de-peyrolieres-circuit-du-lac-de-parayre_9.3 km</name>
    <desc><![CDATA[Total: 9.3km]]></desc>
  </metadata>
  <trk>
    <name><![CDATA[Freestyle]]></name>
    <desc><![CDATA[Total: 9.3km]]></desc>
    <trkseg>
      <trkpt lat="43.49203" lon="1.14478">
        <ele>266.76</ele>
        <time>2019-10-30T12:54:47Z</time>
      </trkpt>
      <trkpt lat="43.49191" lon="1.14485">
        <ele>266.47132178729</ele>
        <time>2019-10-30T12:54:57Z</time>
      </trkpt>
      <trkpt lat="43.49175" lon="1.14499">
        <ele>265.96229242021</ele>
        <time>2019-10-30T12:55:13Z</time>
      </trkpt>
      <trkpt lat="43.49159" lon="1.1449">
        <ele>265.34</ele>
        <time>2019-10-30T12:55:26Z</time>
      </trkpt>
      <trkpt lat="43.49117" lon="1.14437">
        <ele>261.82</ele>
        <time>2019-10-30T12:56:12Z</time>
      </trkpt>
      <trkpt lat="43.49026" lon="1.14448">
        <ele>254.02739057388</ele>
        <time>2019-10-30T12:57:25Z</time>
      </trkpt>
      <trkpt lat="43.49022" lon="1.14447">
        <ele>253.63544912036</ele>
        <time>2019-10-30T12:57:29Z</time>
      </trkpt>
      <trkpt lat="43.49017" lon="1.14444">
        <ele>253.1465724241</ele>
        <time>2019-10-30T12:57:33Z</time>
      </trkpt>
      <trkpt lat="43.49013" lon="1.14442">
        <ele>252.76122721482</ele>
        <time>2019-10-30T12:57:36Z</time>
      </trkpt>
      <trkpt lat="43.49008" lon="1.14438">
        <ele>252.187295259</ele>
        <time>2019-10-30T12:57:41Z</time>
      </trkpt>
      <trkpt lat="43.49001" lon="1.14432">
        <ele>251.5120713283</ele>
        <time>2019-10-30T12:57:47Z</time>
      </trkpt>
      <trkpt lat="43.4899" lon="1.14419">
        <ele>250.22</ele>
        <time>2019-10-30T12:57:59Z</time>
      </trkpt>
      <trkpt lat="43.48986" lon="1.14414">
        <ele>249.74171491804</ele>
        <time>2019-10-30T12:58:04Z</time>
      </trkpt>
      <trkpt lat="43.48973" lon="1.14403">
        <ele>248.42624079929</ele>
        <time>2019-10-30T12:58:16Z</time>
      </trkpt>
      <trkpt lat="43.48967" lon="1.14399">
        <ele>247.9403104276</ele>
        <time>2019-10-30T12:58:21Z</time>
      </trkpt>
      <trkpt lat="43.48965" lon="1.14397">
        <ele>247.77918089141</ele>
        <time>2019-10-30T12:58:23Z</time>
      </trkpt>
      <trkpt lat="43.48961" lon="1.14395">
        <ele>247.46861118845</ele>
        <time>2019-10-30T12:58:26Z</time>
      </trkpt>
      <trkpt lat="43.4895" lon="1.14392">
        <ele>246.68251406901</ele>
        <time>2019-10-30T12:58:35Z</time>
      </trkpt>
      <trkpt lat="43.48948" lon="1.14391">
        <ele>246.50140383726</ele>
        <time>2019-10-30T12:58:37Z</time>
      </trkpt>
      <trkpt lat="43.48943" lon="1.14388">
        <ele>246.18640628107</ele>
        <time>2019-10-30T12:58:42Z</time>
      </trkpt>
      <trkpt lat="43.4894" lon="1.14387">
        <ele>246.03081083863</ele>
        <time>2019-10-30T12:58:44Z</time>
      </trkpt>
      <trkpt lat="43.48937" lon="1.14386">
        <ele>245.87378941464</ele>
        <time>2019-10-30T12:58:46Z</time>
      </trkpt>
      <trkpt lat="43.48927" lon="1.14388">
        <ele>245.42340017272</ele>
        <time>2019-10-30T12:58:54Z</time>
      </trkpt>
      <trkpt lat="43.4892" lon="1.14387">
        <ele>245.19</ele>
        <time>2019-10-30T12:59:00Z</time>
      </trkpt>
      <trkpt lat="43.48909" lon="1.14389">
        <ele>244.96836968893</ele>
        <time>2019-10-30T12:59:09Z</time>
      </trkpt>
      <trkpt lat="43.48906" lon="1.14388">
        <ele>244.93544292686</ele>
        <time>2019-10-30T12:59:11Z</time>
      </trkpt>
      <trkpt lat="43.48898" lon="1.14386">
        <ele>244.91352508624</ele>
        <time>2019-10-30T12:59:18Z</time>
      </trkpt>
      <trkpt lat="43.48894" lon="1.14385">
        <ele>244.93928201619</ele>
        <time>2019-10-30T12:59:21Z</time>
      </trkpt>
      <trkpt lat="43.48889" lon="1.14385">
        <ele>245.01973458604</ele>
        <time>2019-10-30T12:59:25Z</time>
      </trkpt>
      <trkpt lat="43.48879" lon="1.14383">
        <ele>245.28007772757</ele>
        <time>2019-10-30T12:59:33Z</time>
      </trkpt>
      <trkpt lat="43.48863" lon="1.1438">
        <ele>245.98500828008</ele>
        <time>2019-10-30T12:59:46Z</time>
      </trkpt>
      <trkpt lat="43.48851" lon="1.14378">
        <ele>246.84791106901</ele>
        <time>2019-10-30T12:59:56Z</time>
      </trkpt>
      <trkpt lat="43.48845" lon="1.14377">
        <ele>247.35314511362</ele>
        <time>2019-10-30T13:00:01Z</time>
      </trkpt>
      <trkpt lat="43.48834" lon="1.14374">
        <ele>248.47</ele>
        <time>2019-10-30T13:00:10Z</time>
      </trkpt>
      <trkpt lat="43.48823" lon="1.14373">
        <ele>249.68427313691</ele>
        <time>2019-10-30T13:00:18Z</time>
      </trkpt>
      <trkpt lat="43.48808" lon="1.14369">
        <ele>251.73817246065</ele>
        <time>2019-10-30T13:00:31Z</time>
      </trkpt>
      <trkpt lat="43.48798" lon="1.14368">
        <ele>253.16500403858</ele>
        <time>2019-10-30T13:00:39Z</time>
      </trkpt>
      <trkpt lat="43.48795" lon="1.14368">
        <ele>253.5751913837</ele>
        <time>2019-10-30T13:00:41Z</time>
      </trkpt>
      <trkpt lat="43.48789" lon="1.14365">
        <ele>254.5316532018</ele>
        <time>2019-10-30T13:00:47Z</time>
      </trkpt>
      <trkpt lat="43.48781" lon="1.14363">
        <ele>255.63708522956</ele>
        <time>2019-10-30T13:00:53Z</time>
      </trkpt>
      <trkpt lat="43.48765" lon="1.1436">
        <ele>257.84389371347</ele>
        <time>2019-10-30T13:01:06Z</time>
      </trkpt>
      <trkpt lat="43.48759" lon="1.1436">
        <ele>258.61841905555</ele>
        <time>2019-10-30T13:01:11Z</time>
      </trkpt>
      <trkpt lat="43.48755" lon="1.1436">
        <ele>259.1</ele>
        <time>2019-10-30T13:01:14Z</time>
      </trkpt>
      <trkpt lat="43.48751" lon="1.1436">
        <ele>259.56024286897</ele>
        <time>2019-10-30T13:01:17Z</time>
      </trkpt>
      <trkpt lat="43.48748" lon="1.14361">
        <ele>259.89310250812</ele>
        <time>2019-10-30T13:01:20Z</time>
      </trkpt>
      <trkpt lat="43.48744" lon="1.14362">
        <ele>260.30446893522</ele>
        <time>2019-10-30T13:01:23Z</time>
      </trkpt>
      <trkpt lat="43.48741" lon="1.14363">
        <ele>260.61066764922</ele>
        <time>2019-10-30T13:01:25Z</time>
      </trkpt>
      <trkpt lat="43.48735" lon="1.14367">
        <ele>261.25988558543</ele>
        <time>2019-10-30T13:01:31Z</time>
      </trkpt>
      <trkpt lat="43.48727" lon="1.14374">
        <ele>262.04333986321</ele>
        <time>2019-10-30T13:01:38Z</time>
      </trkpt>
      <trkpt lat="43.48724" lon="1.14376">
        <ele>262.30774159214</ele>
        <time>2019-10-30T13:01:41Z</time>
      </trkpt>
      <trkpt lat="43.48721" lon="1.14377">
        <ele>262.55189862176</ele>
        <time>2019-10-30T13:01:44Z</time>
      </trkpt>
      <trkpt lat="43.48714" lon="1.14379">
        <ele>263.01825758542</ele>
        <time>2019-10-30T13:01:49Z</time>
      </trkpt>
      <trkpt lat="43.4871" lon="1.1438">
        <ele>263.24926238778</ele>
        <time>2019-10-30T13:01:52Z</time>
      </trkpt>
      <trkpt lat="43.48701" lon="1.14386">
        <ele>263.81661196224</ele>
        <time>2019-10-30T13:02:01Z</time>
      </trkpt>
      <trkpt lat="43.48698" lon="1.14387">
        <ele>263.9729366792</ele>
        <time>2019-10-30T13:02:03Z</time>
      </trkpt>
      <trkpt lat="43.48694" lon="1.14389">
        <ele>264.16830211824</ele>
        <time>2019-10-30T13:02:07Z</time>
      </trkpt>
      <trkpt lat="43.4869" lon="1.14391">
        <ele>264.34834698457</ele>
        <time>2019-10-30T13:02:10Z</time>
      </trkpt>
      <trkpt lat="43.48687" lon="1.14394">
        <ele>264.48034210951</ele>
        <time>2019-10-30T13:02:13Z</time>
      </trkpt>
      <trkpt lat="43.48686" lon="1.14396">
        <ele>264.56459181483</ele>
        <time>2019-10-30T13:02:15Z</time>
      </trkpt>
      <trkpt lat="43.48684" lon="1.144">
        <ele>264.68</ele>
        <time>2019-10-30T13:02:17Z</time>
      </trkpt>
      <trkpt lat="43.48681" lon="1.14409">
        <ele>264.90386154165</ele>
        <time>2019-10-30T13:02:23Z</time>
      </trkpt>
      <trkpt lat="43.4868" lon="1.14414">
        <ele>265.01567551542</ele>
        <time>2019-10-30T13:02:26Z</time>
      </trkpt>
      <trkpt lat="43.48679" lon="1.14416">
        <ele>265.05774424773</ele>
        <time>2019-10-30T13:02:27Z</time>
      </trkpt>
      <trkpt lat="43.48679" lon="1.1442">
        <ele>265.12214931902</ele>
        <time>2019-10-30T13:02:29Z</time>
      </trkpt>
      <trkpt lat="43.4868" lon="1.14422">
        <ele>265.16615884506</ele>
        <time>2019-10-30T13:02:31Z</time>
      </trkpt>
      <trkpt lat="43.48682" lon="1.14425">
        <ele>265.23044986678</ele>
        <time>2019-10-30T13:02:33Z</time>
      </trkpt>
      <trkpt lat="43.48684" lon="1.14428">
        <ele>265.29649225427</ele>
        <time>2019-10-30T13:02:36Z</time>
      </trkpt>
      <trkpt lat="43.48688" lon="1.1443">
        <ele>265.3638174623</ele>
        <time>2019-10-30T13:02:39Z</time>
      </trkpt>
      <trkpt lat="43.4869" lon="1.14433">
        <ele>265.4152841179</ele>
        <time>2019-10-30T13:02:41Z</time>
      </trkpt>
      <trkpt lat="43.48706" lon="1.14455">
        <ele>265.58893220482</ele>
        <time>2019-10-30T13:02:59Z</time>
      </trkpt>
      <trkpt lat="43.48709" lon="1.1446">
        <ele>265.58570795579</ele>
        <time>2019-10-30T13:03:03Z</time>
      </trkpt>
      <trkpt lat="43.48715" lon="1.14472">
        <ele>265.53302715741</ele>
        <time>2019-10-30T13:03:11Z</time>
      </trkpt>
      <trkpt lat="43.48723" lon="1.14484">
        <ele>265.39</ele>
        <time>2019-10-30T13:03:21Z</time>
      </trkpt>
      <trkpt lat="43.48731" lon="1.14498">
        <ele>265.14424483559</ele>
        <time>2019-10-30T13:03:31Z</time>
      </trkpt>
      <trkpt lat="43.48735" lon="1.14505">
        <ele>264.98170532529</ele>
        <time>2019-10-30T13:03:36Z</time>
      </trkpt>
      <trkpt lat="43.48744" lon="1.14517">
        <ele>264.57577268739</ele>
        <time>2019-10-30T13:03:47Z</time>
      </trkpt>
      <trkpt lat="43.48747" lon="1.14522">
        <ele>264.4086576526</ele>
        <time>2019-10-30T13:03:50Z</time>
      </trkpt>
      <trkpt lat="43.4875" lon="1.14533">
        <ele>264.03404221522</ele>
        <time>2019-10-30T13:03:57Z</time>
      </trkpt>
      <trkpt lat="43.48756" lon="1.14544">
        <ele>263.50229166836</ele>
        <time>2019-10-30T13:04:05Z</time>
      </trkpt>
      <trkpt lat="43.48758" lon="1.14548">
        <ele>263.3387704222</ele>
        <time>2019-10-30T13:04:08Z</time>
      </trkpt>
      <trkpt lat="43.4876" lon="1.14554">
        <ele>263.01747119669</ele>
        <time>2019-10-30T13:04:12Z</time>
      </trkpt>
      <trkpt lat="43.48764" lon="1.14569">
        <ele>262.2398320071</ele>
        <time>2019-10-30T13:04:21Z</time>
      </trkpt>
      <trkpt lat="43.48764" lon="1.14571">
        <ele>262.07820878247</ele>
        <time>2019-10-30T13:04:22Z</time>
      </trkpt>
      <trkpt lat="43.48765" lon="1.14577">
        <ele>261.75</ele>
        <time>2019-10-30T13:04:26Z</time>
      </trkpt>
      <trkpt lat="43.48765" lon="1.14592">
        <ele>260.83256821033</ele>
        <time>2019-10-30T13:04:34Z</time>
      </trkpt>
      <trkpt lat="43.48768" lon="1.14606">
        <ele>259.77243156601</ele>
        <time>2019-10-30T13:04:43Z</time>
      </trkpt>
      <trkpt lat="43.48769" lon="1.14613">
        <ele>259.22435053304</ele>
        <time>2019-10-30T13:04:47Z</time>
      </trkpt>
      <trkpt lat="43.48771" lon="1.1462">
        <ele>258.6573908211</ele>
        <time>2019-10-30T13:04:52Z</time>
      </trkpt>
      <trkpt lat="43.48775" lon="1.14631">
        <ele>257.72713097921</ele>
        <time>2019-10-30T13:04:59Z</time>
      </trkpt>
      <trkpt lat="43.48782" lon="1.14647">
        <ele>256.14557104989</ele>
        <time>2019-10-30T13:05:10Z</time>
      </trkpt>
      <trkpt lat="43.48788" lon="1.14659">
        <ele>254.91979305614</ele>
        <time>2019-10-30T13:05:18Z</time>
      </trkpt>
      <trkpt lat="43.48792" lon="1.14666">
        <ele>254.23590986987</ele>
        <time>2019-10-30T13:05:23Z</time>
      </trkpt>
      <trkpt lat="43.48796" lon="1.14673">
        <ele>253.48283580028</ele>
        <time>2019-10-30T13:05:29Z</time>
      </trkpt>
      <trkpt lat="43.48802" lon="1.14681">
        <ele>252.55</ele>
        <time>2019-10-30T13:05:35Z</time>
      </trkpt>
      <trkpt lat="43.48804" lon="1.14686">
        <ele>252.13046513155</ele>
        <time>2019-10-30T13:05:39Z</time>
      </trkpt>
      <trkpt lat="43.48806" lon="1.1469">
        <ele>251.77068048329</ele>
        <time>2019-10-30T13:05:41Z</time>
      </trkpt>
      <trkpt lat="43.48808" lon="1.14698">
        <ele>251.09253342429</ele>
        <time>2019-10-30T13:05:47Z</time>
      </trkpt>
      <trkpt lat="43.48812" lon="1.14711">
        <ele>250.10626880903</ele>
        <time>2019-10-30T13:05:55Z</time>
      </trkpt>
      <trkpt lat="43.48815" lon="1.14721">
        <ele>249.29713627957</ele>
        <time>2019-10-30T13:06:01Z</time>
      </trkpt>
      <trkpt lat="43.48818" lon="1.14726">
        <ele>248.93125593048</ele>
        <time>2019-10-30T13:06:05Z</time>
      </trkpt>
      <trkpt lat="43.48819" lon="1.14729">
        <ele>248.674058546</ele>
        <time>2019-10-30T13:06:07Z</time>
      </trkpt>
      <trkpt lat="43.48821" lon="1.14732">
        <ele>248.42003404994</ele>
        <time>2019-10-30T13:06:09Z</time>
      </trkpt>
      <trkpt lat="43.48826" lon="1.14737">
        <ele>247.93298559475</ele>
        <time>2019-10-30T13:06:14Z</time>
      </trkpt>
      <trkpt lat="43.4883" lon="1.14741">
        <ele>247.56268822625</ele>
        <time>2019-10-30T13:06:18Z</time>
      </trkpt>
      <trkpt lat="43.48831" lon="1.14742">
        <ele>247.50279039018</ele>
        <time>2019-10-30T13:06:19Z</time>
      </trkpt>
      <trkpt lat="43.48834" lon="1.14743">
        <ele>247.27053661173</ele>
        <time>2019-10-30T13:06:21Z</time>
      </trkpt>
      <trkpt lat="43.48838" lon="1.14746">
        <ele>246.91752456442</ele>
        <time>2019-10-30T13:06:25Z</time>
      </trkpt>
      <trkpt lat="43.48842" lon="1.1475">
        <ele>246.58121420665</ele>
        <time>2019-10-30T13:06:29Z</time>
      </trkpt>
      <trkpt lat="43.48846" lon="1.14754">
        <ele>246.27394086568</ele>
        <time>2019-10-30T13:06:33Z</time>
      </trkpt>
      <trkpt lat="43.48849" lon="1.14759">
        <ele>246.01038502287</ele>
        <time>2019-10-30T13:06:37Z</time>
      </trkpt>
      <trkpt lat="43.48851" lon="1.14765">
        <ele>245.72</ele>
        <time>2019-10-30T13:06:41Z</time>
      </trkpt>
      <trkpt lat="43.48853" lon="1.14771">
        <ele>245.52910373691</ele>
        <time>2019-10-30T13:06:44Z</time>
      </trkpt>
      <trkpt lat="43.48853" lon="1.14773">
        <ele>245.45107416264</ele>
        <time>2019-10-30T13:06:46Z</time>
      </trkpt>
      <trkpt lat="43.48852" lon="1.14775">
        <ele>245.38762060218</ele>
        <time>2019-10-30T13:06:47Z</time>
      </trkpt>
      <trkpt lat="43.48852" lon="1.14776">
        <ele>245.35601735535</ele>
        <time>2019-10-30T13:06:47Z</time>
      </trkpt>
      <trkpt lat="43.48851" lon="1.14777">
        <ele>245.28539975662</ele>
        <time>2019-10-30T13:06:49Z</time>
      </trkpt>
      <trkpt lat="43.48849" lon="1.14778">
        <ele>245.20552133469</ele>
        <time>2019-10-30T13:06:50Z</time>
      </trkpt>
      <trkpt lat="43.48847" lon="1.14779">
        <ele>245.11306873351</ele>
        <time>2019-10-30T13:06:52Z</time>
      </trkpt>
      <trkpt lat="43.4884" lon="1.1478">
        <ele>244.87114112619</ele>
        <time>2019-10-30T13:06:58Z</time>
      </trkpt>
      <trkpt lat="43.48838" lon="1.14781">
        <ele>244.80873449897</ele>
        <time>2019-10-30T13:06:59Z</time>
      </trkpt>
      <trkpt lat="43.48836" lon="1.14782">
        <ele>244.75002572534</ele>
        <time>2019-10-30T13:07:01Z</time>
      </trkpt>
      <trkpt lat="43.48834" lon="1.14785">
        <ele>244.65858249651</ele>
        <time>2019-10-30T13:07:03Z</time>
      </trkpt>
      <trkpt lat="43.48831" lon="1.14794">
        <ele>244.48166452696</ele>
        <time>2019-10-30T13:07:09Z</time>
      </trkpt>
      <trkpt lat="43.48828" lon="1.14799">
        <ele>244.38801294696</ele>
        <time>2019-10-30T13:07:13Z</time>
      </trkpt>
      <trkpt lat="43.48825" lon="1.14804">
        <ele>244.30844245903</ele>
        <time>2019-10-30T13:07:17Z</time>
      </trkpt>
      <trkpt lat="43.48821" lon="1.14811">
        <ele>244.2228422314</ele>
        <time>2019-10-30T13:07:22Z</time>
      </trkpt>
      <trkpt lat="43.48809" lon="1.14828">
        <ele>244.09139436711</ele>
        <time>2019-10-30T13:07:36Z</time>
      </trkpt>
      <trkpt lat="43.488" lon="1.14842">
        <ele>244.08</ele>
        <time>2019-10-30T13:07:46Z</time>
      </trkpt>
      <trkpt lat="43.48798" lon="1.14844">
        <ele>244.08591135272</ele>
        <time>2019-10-30T13:07:49Z</time>
      </trkpt>
      <trkpt lat="43.48793" lon="1.14847">
        <ele>244.10055830103</ele>
        <time>2019-10-30T13:07:53Z</time>
      </trkpt>
      <trkpt lat="43.48789" lon="1.14851">
        <ele>244.11801668016</ele>
        <time>2019-10-30T13:07:57Z</time>
      </trkpt>
      <trkpt lat="43.4878" lon="1.1486">
        <ele>244.15631407734</ele>
        <time>2019-10-30T13:08:06Z</time>
      </trkpt>
      <trkpt lat="43.48761" lon="1.14879">
        <ele>244.1239384616</ele>
        <time>2019-10-30T13:08:24Z</time>
      </trkpt>
      <trkpt lat="43.48759" lon="1.14882">
        <ele>244.09491509435</ele>
        <time>2019-10-30T13:08:27Z</time>
      </trkpt>
      <trkpt lat="43.48754" lon="1.14888">
        <ele>244.02347827114</ele>
        <time>2019-10-30T13:08:32Z</time>
      </trkpt>
      <trkpt lat="43.48753" lon="1.1489">
        <ele>243.99</ele>
        <time>2019-10-30T13:08:33Z</time>
      </trkpt>
      <trkpt lat="43.48704" lon="1.14931">
        <ele>241.96137689212</ele>
        <time>2019-10-30T13:09:20Z</time>
      </trkpt>
      <trkpt lat="43.48692" lon="1.14942">
        <ele>241.33558475749</ele>
        <time>2019-10-30T13:09:30Z</time>
      </trkpt>
      <trkpt lat="43.48684" lon="1.14951">
        <ele>240.83666958347</ele>
        <time>2019-10-30T13:09:39Z</time>
      </trkpt>
      <trkpt lat="43.48677" lon="1.14957">
        <ele>240.49808818196</ele>
        <time>2019-10-30T13:09:46Z</time>
      </trkpt>
      <trkpt lat="43.48675" lon="1.14959">
        <ele>240.41055610593</ele>
        <time>2019-10-30T13:09:47Z</time>
      </trkpt>
      <trkpt lat="43.48668" lon="1.14965">
        <ele>240.07</ele>
        <time>2019-10-30T13:09:54Z</time>
      </trkpt>
      <trkpt lat="43.4866" lon="1.14971">
        <ele>239.7688307992</ele>
        <time>2019-10-30T13:10:01Z</time>
      </trkpt>
      <trkpt lat="43.48657" lon="1.14974">
        <ele>239.6394003576</ele>
        <time>2019-10-30T13:10:05Z</time>
      </trkpt>
      <trkpt lat="43.48655" lon="1.14976">
        <ele>239.5524190669</ele>
        <time>2019-10-30T13:10:07Z</time>
      </trkpt>
      <trkpt lat="43.48646" lon="1.14986">
        <ele>239.25402763834</ele>
        <time>2019-10-30T13:10:16Z</time>
      </trkpt>
      <trkpt lat="43.48641" lon="1.14991">
        <ele>239.1040620113</ele>
        <time>2019-10-30T13:10:21Z</time>
      </trkpt>
      <trkpt lat="43.48636" lon="1.14995">
        <ele>238.97693971694</ele>
        <time>2019-10-30T13:10:25Z</time>
      </trkpt>
      <trkpt lat="43.48617" lon="1.15008">
        <ele>238.58462595572</ele>
        <time>2019-10-30T13:10:42Z</time>
      </trkpt>
      <trkpt lat="43.48613" lon="1.1501">
        <ele>238.50522274011</ele>
        <time>2019-10-30T13:10:46Z</time>
      </trkpt>
      <trkpt lat="43.48606" lon="1.15014">
        <ele>238.39</ele>
        <time>2019-10-30T13:10:52Z</time>
      </trkpt>
      <trkpt lat="43.48578" lon="1.15026">
        <ele>238.01678543845</ele>
        <time>2019-10-30T13:11:16Z</time>
      </trkpt>
      <trkpt lat="43.4857" lon="1.15029">
        <ele>237.93990517925</ele>
        <time>2019-10-30T13:11:22Z</time>
      </trkpt>
      <trkpt lat="43.48555" lon="1.15034">
        <ele>237.82015914688</ele>
        <time>2019-10-30T13:11:34Z</time>
      </trkpt>
      <trkpt lat="43.48544" lon="1.15037">
        <ele>237.76142298007</ele>
        <time>2019-10-30T13:11:44Z</time>
      </trkpt>
      <trkpt lat="43.48537" lon="1.15038">
        <ele>237.74407045962</ele>
        <time>2019-10-30T13:11:49Z</time>
      </trkpt>
      <trkpt lat="43.48527" lon="1.15037">
        <ele>237.74</ele>
        <time>2019-10-30T13:11:57Z</time>
      </trkpt>
      <trkpt lat="43.48506" lon="1.15035">
        <ele>237.80157361331</ele>
        <time>2019-10-30T13:12:13Z</time>
      </trkpt>
      <trkpt lat="43.48466" lon="1.15032">
        <ele>237.86649241626</ele>
        <time>2019-10-30T13:12:46Z</time>
      </trkpt>
      <trkpt lat="43.48461" lon="1.15033">
        <ele>237.8391927745</ele>
        <time>2019-10-30T13:12:50Z</time>
      </trkpt>
      <trkpt lat="43.48452" lon="1.15035">
        <ele>237.75631347641</ele>
        <time>2019-10-30T13:12:57Z</time>
      </trkpt>
      <trkpt lat="43.48441" lon="1.15035">
        <ele>237.58</ele>
        <time>2019-10-30T13:13:06Z</time>
      </trkpt>
      <trkpt lat="43.48422" lon="1.15039">
        <ele>237.07747801091</ele>
        <time>2019-10-30T13:13:21Z</time>
      </trkpt>
      <trkpt lat="43.48406" lon="1.15042">
        <ele>236.46780879969</ele>
        <time>2019-10-30T13:13:35Z</time>
      </trkpt>
      <trkpt lat="43.48398" lon="1.15044">
        <ele>236.15804060225</ele>
        <time>2019-10-30T13:13:41Z</time>
      </trkpt>
      <trkpt lat="43.48388" lon="1.15047">
        <ele>235.71657564228</ele>
        <time>2019-10-30T13:13:49Z</time>
      </trkpt>
      <trkpt lat="43.48383" lon="1.15048">
        <ele>235.49019419478</ele>
        <time>2019-10-30T13:13:53Z</time>
      </trkpt>
      <trkpt lat="43.48374" lon="1.15049">
        <ele>235.08405908089</ele>
        <time>2019-10-30T13:14:00Z</time>
      </trkpt>
      <trkpt lat="43.4837" lon="1.1505">
        <ele>234.92777688612</ele>
        <time>2019-10-30T13:14:03Z</time>
      </trkpt>
      <trkpt lat="43.48366" lon="1.15052">
        <ele>234.73729241551</ele>
        <time>2019-10-30T13:14:07Z</time>
      </trkpt>
      <trkpt lat="43.48363" lon="1.15054">
        <ele>234.59</ele>
        <time>2019-10-30T13:14:10Z</time>
      </trkpt>
      <trkpt lat="43.48355" lon="1.15055">
        <ele>234.27523480996</ele>
        <time>2019-10-30T13:14:16Z</time>
      </trkpt>
      <trkpt lat="43.48346" lon="1.15058">
        <ele>233.90437726648</ele>
        <time>2019-10-30T13:14:23Z</time>
      </trkpt>
      <trkpt lat="43.48336" lon="1.15059">
        <ele>233.53694916095</ele>
        <time>2019-10-30T13:14:31Z</time>
      </trkpt>
      <trkpt lat="43.48326" lon="1.15062">
        <ele>233.17500451868</ele>
        <time>2019-10-30T13:14:39Z</time>
      </trkpt>
      <trkpt lat="43.4832" lon="1.15064">
        <ele>232.9677191821</ele>
        <time>2019-10-30T13:14:45Z</time>
      </trkpt>
      <trkpt lat="43.48301" lon="1.15067">
        <ele>232.41369054238</ele>
        <time>2019-10-30T13:15:00Z</time>
      </trkpt>
      <trkpt lat="43.48293" lon="1.15068">
        <ele>232.21810057451</ele>
        <time>2019-10-30T13:15:07Z</time>
      </trkpt>
      <trkpt lat="43.48285" lon="1.15068">
        <ele>232.05015644778</ele>
        <time>2019-10-30T13:15:13Z</time>
      </trkpt>
      <trkpt lat="43.48277" lon="1.15067">
        <ele>231.91</ele>
        <time>2019-10-30T13:15:19Z</time>
      </trkpt>
      <trkpt lat="43.4827" lon="1.15066">
        <ele>231.79800539825</ele>
        <time>2019-10-30T13:15:25Z</time>
      </trkpt>
      <trkpt lat="43.48254" lon="1.15062">
        <ele>231.60247232552</ele>
        <time>2019-10-30T13:15:38Z</time>
      </trkpt>
      <trkpt lat="43.48242" lon="1.1506">
        <ele>231.50924827496</ele>
        <time>2019-10-30T13:15:47Z</time>
      </trkpt>
      <trkpt lat="43.48234" lon="1.15058">
        <ele>231.46324191114</ele>
        <time>2019-10-30T13:15:54Z</time>
      </trkpt>
      <trkpt lat="43.4822" lon="1.15053">
        <ele>231.40663840605</ele>
        <time>2019-10-30T13:16:05Z</time>
      </trkpt>
      <trkpt lat="43.48215" lon="1.15052">
        <ele>231.39163837633</ele>
        <time>2019-10-30T13:16:09Z</time>
      </trkpt>
      <trkpt lat="43.48198" lon="1.15049">
        <ele>231.35</ele>
        <time>2019-10-30T13:16:23Z</time>
      </trkpt>
      <trkpt lat="43.48183" lon="1.15046">
        <ele>231.31897752859</ele>
        <time>2019-10-30T13:16:35Z</time>
      </trkpt>
      <trkpt lat="43.48177" lon="1.15045">
        <ele>231.31038484008</ele>
        <time>2019-10-30T13:16:40Z</time>
      </trkpt>
      <trkpt lat="43.48165" lon="1.15042">
        <ele>231.30874497105</ele>
        <time>2019-10-30T13:16:50Z</time>
      </trkpt>
      <trkpt lat="43.48157" lon="1.15042">
        <ele>231.32258094875</ele>
        <time>2019-10-30T13:16:56Z</time>
      </trkpt>
      <trkpt lat="43.48147" lon="1.15041">
        <ele>231.36804866534</ele>
        <time>2019-10-30T13:17:05Z</time>
      </trkpt>
      <trkpt lat="43.4814" lon="1.1504">
        <ele>231.41183584736</ele>
        <time>2019-10-30T13:17:10Z</time>
      </trkpt>
      <trkpt lat="43.48125" lon="1.15035">
        <ele>231.58</ele>
        <time>2019-10-30T13:17:22Z</time>
      </trkpt>
      <trkpt lat="43.4811" lon="1.1503">
        <ele>231.8515564559</ele>
        <time>2019-10-30T13:17:34Z</time>
      </trkpt>
      <trkpt lat="43.48099" lon="1.15026">
        <ele>232.08881887985</ele>
        <time>2019-10-30T13:17:43Z</time>
      </trkpt>
      <trkpt lat="43.4809" lon="1.15023">
        <ele>232.3114073901</ele>
        <time>2019-10-30T13:17:51Z</time>
      </trkpt>
      <trkpt lat="43.48078" lon="1.15019">
        <ele>232.58834104223</ele>
        <time>2019-10-30T13:18:01Z</time>
      </trkpt>
      <trkpt lat="43.48063" lon="1.15015">
        <ele>232.89823478769</ele>
        <time>2019-10-30T13:18:14Z</time>
      </trkpt>
      <trkpt lat="43.48049" lon="1.1501">
        <ele>233.11486535654</ele>
        <time>2019-10-30T13:18:25Z</time>
      </trkpt>
      <trkpt lat="43.48039" lon="1.15005">
        <ele>233.2</ele>
        <time>2019-10-30T13:18:33Z</time>
      </trkpt>
      <trkpt lat="43.48034" lon="1.15004">
        <ele>233.21759533448</ele>
        <time>2019-10-30T13:18:38Z</time>
      </trkpt>
      <trkpt lat="43.4802" lon="1.15">
        <ele>233.18351896221</ele>
        <time>2019-10-30T13:18:49Z</time>
      </trkpt>
      <trkpt lat="43.48014" lon="1.14997">
        <ele>233.12661069697</ele>
        <time>2019-10-30T13:18:54Z</time>
      </trkpt>
      <trkpt lat="43.48006" lon="1.14994">
        <ele>233.03483801844</ele>
        <time>2019-10-30T13:19:00Z</time>
      </trkpt>
      <trkpt lat="43.47998" lon="1.14991">
        <ele>232.89843132174</ele>
        <time>2019-10-30T13:19:07Z</time>
      </trkpt>
      <trkpt lat="43.47959" lon="1.14978">
        <ele>232</ele>
        <time>2019-10-30T13:19:39Z</time>
      </trkpt>
      <trkpt lat="43.47943" lon="1.14972">
        <ele>231.53989581375</ele>
        <time>2019-10-30T13:19:53Z</time>
      </trkpt>
      <trkpt lat="43.4793" lon="1.14967">
        <ele>231.21200727597</ele>
        <time>2019-10-30T13:20:03Z</time>
      </trkpt>
      <trkpt lat="43.47922" lon="1.14965">
        <ele>231.01092783442</ele>
        <time>2019-10-30T13:20:10Z</time>
      </trkpt>
      <trkpt lat="43.47915" lon="1.14963">
        <ele>230.86673883527</ele>
        <time>2019-10-30T13:20:15Z</time>
      </trkpt>
      <trkpt lat="43.47907" lon="1.1496">
        <ele>230.72147935869</ele>
        <time>2019-10-30T13:20:22Z</time>
      </trkpt>
      <trkpt lat="43.47896" lon="1.14955">
        <ele>230.57661216388</ele>
        <time>2019-10-30T13:20:32Z</time>
      </trkpt>
      <trkpt lat="43.47888" lon="1.14953">
        <ele>230.53</ele>
        <time>2019-10-30T13:20:38Z</time>
      </trkpt>
      <trkpt lat="43.47864" lon="1.14944">
        <ele>230.65994137581</ele>
        <time>2019-10-30T13:20:58Z</time>
      </trkpt>
      <trkpt lat="43.47856" lon="1.14941">
        <ele>230.77392317915</ele>
        <time>2019-10-30T13:21:04Z</time>
      </trkpt>
      <trkpt lat="43.47852" lon="1.1494">
        <ele>230.85606858993</ele>
        <time>2019-10-30T13:21:08Z</time>
      </trkpt>
      <trkpt lat="43.47847" lon="1.14939">
        <ele>230.93945166117</ele>
        <time>2019-10-30T13:21:12Z</time>
      </trkpt>
      <trkpt lat="43.47827" lon="1.14938">
        <ele>231.40837614014</ele>
        <time>2019-10-30T13:21:28Z</time>
      </trkpt>
      <trkpt lat="43.47807" lon="1.14938">
        <ele>231.95</ele>
        <time>2019-10-30T13:21:44Z</time>
      </trkpt>
      <trkpt lat="43.47799" lon="1.14938">
        <ele>232.19734157011</ele>
        <time>2019-10-30T13:21:50Z</time>
      </trkpt>
      <trkpt lat="43.47768" lon="1.14938">
        <ele>233.08859806923</ele>
        <time>2019-10-30T13:22:15Z</time>
      </trkpt>
      <trkpt lat="43.47747" lon="1.1494">
        <ele>233.76195863537</ele>
        <time>2019-10-30T13:22:32Z</time>
      </trkpt>
      <trkpt lat="43.47737" lon="1.1494">
        <ele>234.0588575966</ele>
        <time>2019-10-30T13:22:40Z</time>
      </trkpt>
      <trkpt lat="43.4773" lon="1.14938">
        <ele>234.31174245232</ele>
        <time>2019-10-30T13:22:46Z</time>
      </trkpt>
      <trkpt lat="43.47728" lon="1.14939">
        <ele>234.38874811343</ele>
        <time>2019-10-30T13:22:48Z</time>
      </trkpt>
      <trkpt lat="43.47724" lon="1.1494">
        <ele>234.51084948279</ele>
        <time>2019-10-30T13:22:50Z</time>
      </trkpt>
      <trkpt lat="43.4772" lon="1.14939">
        <ele>234.64</ele>
        <time>2019-10-30T13:22:53Z</time>
      </trkpt>
      <trkpt lat="43.47711" lon="1.14934">
        <ele>234.96848020701</ele>
        <time>2019-10-30T13:23:01Z</time>
      </trkpt>
      <trkpt lat="43.47708" lon="1.14933">
        <ele>235.09527615799</ele>
        <time>2019-10-30T13:23:04Z</time>
      </trkpt>
      <trkpt lat="43.47702" lon="1.14932">
        <ele>235.29112539654</ele>
        <time>2019-10-30T13:23:09Z</time>
      </trkpt>
      <trkpt lat="43.477" lon="1.14932">
        <ele>235.36475813159</ele>
        <time>2019-10-30T13:23:10Z</time>
      </trkpt>
      <trkpt lat="43.47696" lon="1.14933">
        <ele>235.5040496791</ele>
        <time>2019-10-30T13:23:14Z</time>
      </trkpt>
      <trkpt lat="43.47693" lon="1.14933">
        <ele>235.59270817394</ele>
        <time>2019-10-30T13:23:16Z</time>
      </trkpt>
      <trkpt lat="43.47691" lon="1.14933">
        <ele>235.64848572089</ele>
        <time>2019-10-30T13:23:17Z</time>
      </trkpt>
      <trkpt lat="43.4769" lon="1.14933">
        <ele>235.69522305759</ele>
        <time>2019-10-30T13:23:19Z</time>
      </trkpt>
      <trkpt lat="43.4768" lon="1.14932">
        <ele>235.96833750011</ele>
        <time>2019-10-30T13:23:26Z</time>
      </trkpt>
      <trkpt lat="43.47647" lon="1.14925">
        <ele>236.41</ele>
        <time>2019-10-30T13:23:53Z</time>
      </trkpt>
      <trkpt lat="43.47632" lon="1.14923">
        <ele>236.2732209063</ele>
        <time>2019-10-30T13:24:05Z</time>
      </trkpt>
      <trkpt lat="43.47624" lon="1.14922">
        <ele>236.12121821231</ele>
        <time>2019-10-30T13:24:11Z</time>
      </trkpt>
      <trkpt lat="43.47604" lon="1.14916">
        <ele>235.53215442507</ele>
        <time>2019-10-30T13:24:27Z</time>
      </trkpt>
      <trkpt lat="43.47588" lon="1.14911">
        <ele>234.89580540596</ele>
        <time>2019-10-30T13:24:41Z</time>
      </trkpt>
      <trkpt lat="43.47582" lon="1.14909">
        <ele>234.64593295792</ele>
        <time>2019-10-30T13:24:46Z</time>
      </trkpt>
      <trkpt lat="43.47573" lon="1.14905">
        <ele>234.24613203373</ele>
        <time>2019-10-30T13:24:53Z</time>
      </trkpt>
      <trkpt lat="43.4757" lon="1.14905">
        <ele>234.13030118057</ele>
        <time>2019-10-30T13:24:56Z</time>
      </trkpt>
      <trkpt lat="43.47563" lon="1.14904">
        <ele>233.84</ele>
        <time>2019-10-30T13:25:01Z</time>
      </trkpt>
      <trkpt lat="43.4756" lon="1.14903">
        <ele>233.68495304494</ele>
        <time>2019-10-30T13:25:04Z</time>
      </trkpt>
      <trkpt lat="43.47549" lon="1.14898">
        <ele>233.25059438434</ele>
        <time>2019-10-30T13:25:13Z</time>
      </trkpt>
      <trkpt lat="43.47535" lon="1.14892">
        <ele>232.69688283339</ele>
        <time>2019-10-30T13:25:25Z</time>
      </trkpt>
      <trkpt lat="43.47527" lon="1.1489">
        <ele>232.42944584657</ele>
        <time>2019-10-30T13:25:32Z</time>
      </trkpt>
      <trkpt lat="43.47511" lon="1.14886">
        <ele>232.00475336891</ele>
        <time>2019-10-30T13:25:44Z</time>
      </trkpt>
      <trkpt lat="43.47503" lon="1.14885">
        <ele>231.82140406395</ele>
        <time>2019-10-30T13:25:51Z</time>
      </trkpt>
      <trkpt lat="43.4749" lon="1.14884">
        <ele>231.64562617617</ele>
        <time>2019-10-30T13:26:01Z</time>
      </trkpt>
      <trkpt lat="43.47484" lon="1.14883">
        <ele>231.6</ele>
        <time>2019-10-30T13:26:06Z</time>
      </trkpt>
      <trkpt lat="43.47474" lon="1.1488">
        <ele>231.58275311391</ele>
        <time>2019-10-30T13:26:15Z</time>
      </trkpt>
      <trkpt lat="43.47471" lon="1.1488">
        <ele>231.5883597457</ele>
        <time>2019-10-30T13:26:17Z</time>
      </trkpt>
      <trkpt lat="43.47469" lon="1.1488">
        <ele>231.59730598793</ele>
        <time>2019-10-30T13:26:19Z</time>
      </trkpt>
      <trkpt lat="43.47463" lon="1.14881">
        <ele>231.62680946341</ele>
        <time>2019-10-30T13:26:23Z</time>
      </trkpt>
      <trkpt lat="43.47457" lon="1.14882">
        <ele>231.67307892121</ele>
        <time>2019-10-30T13:26:28Z</time>
      </trkpt>
      <trkpt lat="43.47447" lon="1.14883">
        <ele>231.7649196459</ele>
        <time>2019-10-30T13:26:36Z</time>
      </trkpt>
      <trkpt lat="43.47438" lon="1.14884">
        <ele>231.84376863293</ele>
        <time>2019-10-30T13:26:43Z</time>
      </trkpt>
      <trkpt lat="43.4743" lon="1.14885">
        <ele>231.90863336563</ele>
        <time>2019-10-30T13:26:50Z</time>
      </trkpt>
      <trkpt lat="43.47417" lon="1.14888">
        <ele>231.96172942158</ele>
        <time>2019-10-30T13:27:00Z</time>
      </trkpt>
      <trkpt lat="43.47408" lon="1.1489">
        <ele>231.94228501081</ele>
        <time>2019-10-30T13:27:08Z</time>
      </trkpt>
      <trkpt lat="43.47401" lon="1.1489">
        <ele>231.89</ele>
        <time>2019-10-30T13:27:13Z</time>
      </trkpt>
      <trkpt lat="43.47384" lon="1.14891">
        <ele>231.59019457983</ele>
        <time>2019-10-30T13:27:27Z</time>
      </trkpt>
      <trkpt lat="43.47358" lon="1.14892">
        <ele>230.85248655602</ele>
        <time>2019-10-30T13:27:47Z</time>
      </trkpt>
      <trkpt lat="43.47349" lon="1.14893">
        <ele>230.55492104942</ele>
        <time>2019-10-30T13:27:55Z</time>
      </trkpt>
      <trkpt lat="43.47342" lon="1.14894">
        <ele>230.34355439944</ele>
        <time>2019-10-30T13:28:00Z</time>
      </trkpt>
      <trkpt lat="43.47339" lon="1.14894">
        <ele>230.23833029336</ele>
        <time>2019-10-30T13:28:03Z</time>
      </trkpt>
      <trkpt lat="43.47336" lon="1.14894">
        <ele>230.13320204283</ele>
        <time>2019-10-30T13:28:05Z</time>
      </trkpt>
      <trkpt lat="43.47327" lon="1.14893">
        <ele>229.89</ele>
        <time>2019-10-30T13:28:12Z</time>
      </trkpt>
      <trkpt lat="43.4732" lon="1.14893">
        <ele>229.71900408605</ele>
        <time>2019-10-30T13:28:18Z</time>
      </trkpt>
      <trkpt lat="43.47306" lon="1.14894">
        <ele>229.4411732051</ele>
        <time>2019-10-30T13:28:29Z</time>
      </trkpt>
      <trkpt lat="43.47295" lon="1.14895">
        <ele>229.24511832058</ele>
        <time>2019-10-30T13:28:38Z</time>
      </trkpt>
      <trkpt lat="43.47286" lon="1.14896">
        <ele>229.09813052499</ele>
        <time>2019-10-30T13:28:45Z</time>
      </trkpt>
      <trkpt lat="43.47272" lon="1.14899">
        <ele>228.85572152361</ele>
        <time>2019-10-30T13:28:57Z</time>
      </trkpt>
      <trkpt lat="43.47261" lon="1.149">
        <ele>228.6658214887</ele>
        <time>2019-10-30T13:29:05Z</time>
      </trkpt>
      <trkpt lat="43.47254" lon="1.149">
        <ele>228.51627173406</ele>
        <time>2019-10-30T13:29:11Z</time>
      </trkpt>
      <trkpt lat="43.47241" lon="1.149">
        <ele>228.2</ele>
        <time>2019-10-30T13:29:21Z</time>
      </trkpt>
      <trkpt lat="43.47197" lon="1.14896">
        <ele>226.95741512218</ele>
        <time>2019-10-30T13:29:57Z</time>
      </trkpt>
      <trkpt lat="43.47171" lon="1.14893">
        <ele>226.94</ele>
        <time>2019-10-30T13:30:17Z</time>
      </trkpt>
      <trkpt lat="43.47147" lon="1.14889">
        <ele>227.88210416219</ele>
        <time>2019-10-30T13:30:37Z</time>
      </trkpt>
      <trkpt lat="43.47139" lon="1.14889">
        <ele>228.38994468728</ele>
        <time>2019-10-30T13:30:44Z</time>
      </trkpt>
      <trkpt lat="43.47134" lon="1.14889">
        <ele>228.66133979172</ele>
        <time>2019-10-30T13:30:47Z</time>
      </trkpt>
      <trkpt lat="43.47127" lon="1.1489">
        <ele>229.11895132689</ele>
        <time>2019-10-30T13:30:53Z</time>
      </trkpt>
      <trkpt lat="43.47122" lon="1.14892">
        <ele>229.47907566887</ele>
        <time>2019-10-30T13:30:57Z</time>
      </trkpt>
      <trkpt lat="43.47117" lon="1.14894">
        <ele>229.81674132026</ele>
        <time>2019-10-30T13:31:01Z</time>
      </trkpt>
      <trkpt lat="43.47114" lon="1.14896">
        <ele>230.05909437855</ele>
        <time>2019-10-30T13:31:04Z</time>
      </trkpt>
      <trkpt lat="43.4711" lon="1.14899">
        <ele>230.3464373485</ele>
        <time>2019-10-30T13:31:07Z</time>
      </trkpt>
      <trkpt lat="43.47107" lon="1.14902">
        <ele>230.63235438164</ele>
        <time>2019-10-30T13:31:11Z</time>
      </trkpt>
      <trkpt lat="43.47104" lon="1.14906">
        <ele>230.86247247059</ele>
        <time>2019-10-30T13:31:14Z</time>
      </trkpt>
      <trkpt lat="43.47103" lon="1.14906">
        <ele>230.93732842742</ele>
        <time>2019-10-30T13:31:15Z</time>
      </trkpt>
      <trkpt lat="43.47098" lon="1.14908">
        <ele>231.20374526136</ele>
        <time>2019-10-30T13:31:19Z</time>
      </trkpt>
      <trkpt lat="43.4709" lon="1.14911">
        <ele>231.65149679551</ele>
        <time>2019-10-30T13:31:26Z</time>
      </trkpt>
      <trkpt lat="43.47084" lon="1.14917">
        <ele>231.95</ele>
        <time>2019-10-30T13:31:31Z</time>
      </trkpt>
      <trkpt lat="43.47081" lon="1.14918">
        <ele>232.0462310725</ele>
        <time>2019-10-30T13:31:34Z</time>
      </trkpt>
      <trkpt lat="43.47077" lon="1.14921">
        <ele>232.17368334167</ele>
        <time>2019-10-30T13:31:37Z</time>
      </trkpt>
      <trkpt lat="43.47071" lon="1.14926">
        <ele>232.32568599762</ele>
        <time>2019-10-30T13:31:43Z</time>
      </trkpt>
      <trkpt lat="43.47062" lon="1.14931">
        <ele>232.43970170214</ele>
        <time>2019-10-30T13:31:51Z</time>
      </trkpt>
      <trkpt lat="43.47053" lon="1.14938">
        <ele>232.47087158808</ele>
        <time>2019-10-30T13:31:59Z</time>
      </trkpt>
      <trkpt lat="43.47049" lon="1.1494">
        <ele>232.46613056573</ele>
        <time>2019-10-30T13:32:02Z</time>
      </trkpt>
      <trkpt lat="43.47044" lon="1.14942">
        <ele>232.44879315902</ele>
        <time>2019-10-30T13:32:07Z</time>
      </trkpt>
      <trkpt lat="43.47041" lon="1.14943">
        <ele>232.4374207239</ele>
        <time>2019-10-30T13:32:09Z</time>
      </trkpt>
      <trkpt lat="43.47039" lon="1.14943">
        <ele>232.42688180157</ele>
        <time>2019-10-30T13:32:10Z</time>
      </trkpt>
      <trkpt lat="43.47036" lon="1.14943">
        <ele>232.40694401457</ele>
        <time>2019-10-30T13:32:13Z</time>
      </trkpt>
      <trkpt lat="43.47027" lon="1.14945">
        <ele>232.35785528784</ele>
        <time>2019-10-30T13:32:21Z</time>
      </trkpt>
      <trkpt lat="43.47018" lon="1.14946">
        <ele>232.32579042586</ele>
        <time>2019-10-30T13:32:28Z</time>
      </trkpt>
      <trkpt lat="43.47009" lon="1.14947">
        <ele>232.33</ele>
        <time>2019-10-30T13:32:35Z</time>
      </trkpt>
      <trkpt lat="43.47005" lon="1.14948">
        <ele>232.35101553423</ele>
        <time>2019-10-30T13:32:38Z</time>
      </trkpt>
      <trkpt lat="43.46996" lon="1.14947">
        <ele>232.42214045957</ele>
        <time>2019-10-30T13:32:45Z</time>
      </trkpt>
      <trkpt lat="43.46993" lon="1.14948">
        <ele>232.46291706351</ele>
        <time>2019-10-30T13:32:48Z</time>
      </trkpt>
      <trkpt lat="43.46987" lon="1.14948">
        <ele>232.53788309416</ele>
        <time>2019-10-30T13:32:52Z</time>
      </trkpt>
      <trkpt lat="43.46975" lon="1.1495">
        <ele>232.75012650775</ele>
        <time>2019-10-30T13:33:02Z</time>
      </trkpt>
      <trkpt lat="43.46967" lon="1.14951">
        <ele>232.88155708271</ele>
        <time>2019-10-30T13:33:08Z</time>
      </trkpt>
      <trkpt lat="43.46962" lon="1.1495">
        <ele>232.97413557529</ele>
        <time>2019-10-30T13:33:12Z</time>
      </trkpt>
      <trkpt lat="43.46955" lon="1.14949">
        <ele>233.11603142051</ele>
        <time>2019-10-30T13:33:18Z</time>
      </trkpt>
      <trkpt lat="43.46944" lon="1.14948">
        <ele>233.2890940321</ele>
        <time>2019-10-30T13:33:27Z</time>
      </trkpt>
      <trkpt lat="43.4693" lon="1.14944">
        <ele>233.46</ele>
        <time>2019-10-30T13:33:39Z</time>
      </trkpt>
      <trkpt lat="43.46921" lon="1.14942">
        <ele>233.50895870723</ele>
        <time>2019-10-30T13:33:46Z</time>
      </trkpt>
      <trkpt lat="43.46912" lon="1.14942">
        <ele>233.51835790004</ele>
        <time>2019-10-30T13:33:53Z</time>
      </trkpt>
      <trkpt lat="43.46902" lon="1.14942">
        <ele>233.49384293324</ele>
        <time>2019-10-30T13:34:01Z</time>
      </trkpt>
      <trkpt lat="43.46892" lon="1.14942">
        <ele>233.44242164967</ele>
        <time>2019-10-30T13:34:09Z</time>
      </trkpt>
      <trkpt lat="43.46884" lon="1.14943">
        <ele>233.38634498665</ele>
        <time>2019-10-30T13:34:15Z</time>
      </trkpt>
      <trkpt lat="43.46879" lon="1.14942">
        <ele>233.351951258</ele>
        <time>2019-10-30T13:34:19Z</time>
      </trkpt>
      <trkpt lat="43.46877" lon="1.14941">
        <ele>233.33101025897</ele>
        <time>2019-10-30T13:34:21Z</time>
      </trkpt>
      <trkpt lat="43.46877" lon="1.14941">
        <ele>233.32939691865</ele>
        <time>2019-10-30T13:34:21Z</time>
      </trkpt>
      <trkpt lat="43.46877" lon="1.14941">
        <ele>233.32686092667</ele>
        <time>2019-10-30T13:34:22Z</time>
      </trkpt>
      <trkpt lat="43.46874" lon="1.14942">
        <ele>233.3087422638</ele>
        <time>2019-10-30T13:34:24Z</time>
      </trkpt>
      <trkpt lat="43.4687" lon="1.14943">
        <ele>233.27874463101</ele>
        <time>2019-10-30T13:34:27Z</time>
      </trkpt>
      <trkpt lat="43.46858" lon="1.14943">
        <ele>233.2</ele>
        <time>2019-10-30T13:34:36Z</time>
      </trkpt>
      <trkpt lat="43.46843" lon="1.14944">
        <ele>233.13708668402</ele>
        <time>2019-10-30T13:34:49Z</time>
      </trkpt>
      <trkpt lat="43.4683" lon="1.14945">
        <ele>233.1185251475</ele>
        <time>2019-10-30T13:34:59Z</time>
      </trkpt>
      <trkpt lat="43.4682" lon="1.14947">
        <ele>233.12430293194</ele>
        <time>2019-10-30T13:35:07Z</time>
      </trkpt>
      <trkpt lat="43.46783" lon="1.14954">
        <ele>233.27354150341</ele>
        <time>2019-10-30T13:35:37Z</time>
      </trkpt>
      <trkpt lat="43.46775" lon="1.14956">
        <ele>233.33</ele>
        <time>2019-10-30T13:35:43Z</time>
      </trkpt>
      <trkpt lat="43.46762" lon="1.1496">
        <ele>233.43685902128</ele>
        <time>2019-10-30T13:35:54Z</time>
      </trkpt>
      <trkpt lat="43.46757" lon="1.14962">
        <ele>233.47786116788</ele>
        <time>2019-10-30T13:35:58Z</time>
      </trkpt>
      <trkpt lat="43.46753" lon="1.14962">
        <ele>233.50819887701</ele>
        <time>2019-10-30T13:36:01Z</time>
      </trkpt>
      <trkpt lat="43.46738" lon="1.14963">
        <ele>233.61754782487</ele>
        <time>2019-10-30T13:36:14Z</time>
      </trkpt>
      <trkpt lat="43.46734" lon="1.14964">
        <ele>233.63952162228</ele>
        <time>2019-10-30T13:36:17Z</time>
      </trkpt>
      <trkpt lat="43.46728" lon="1.14965">
        <ele>233.67008775295</ele>
        <time>2019-10-30T13:36:22Z</time>
      </trkpt>
      <trkpt lat="43.46716" lon="1.14969">
        <ele>233.69806263515</ele>
        <time>2019-10-30T13:36:31Z</time>
      </trkpt>
      <trkpt lat="43.46698" lon="1.14973">
        <ele>233.64782505872</ele>
        <time>2019-10-30T13:36:46Z</time>
      </trkpt>
      <trkpt lat="43.46694" lon="1.14975">
        <ele>233.61959656323</ele>
        <time>2019-10-30T13:36:49Z</time>
      </trkpt>
      <trkpt lat="43.46692" lon="1.14976">
        <ele>233.59670343433</ele>
        <time>2019-10-30T13:36:51Z</time>
      </trkpt>
      <trkpt lat="43.4669" lon="1.14979">
        <ele>233.57</ele>
        <time>2019-10-30T13:36:53Z</time>
      </trkpt>
      <trkpt lat="43.46687" lon="1.14983">
        <ele>233.52062964546</ele>
        <time>2019-10-30T13:36:56Z</time>
      </trkpt>
      <trkpt lat="43.46683" lon="1.14991">
        <ele>233.41728742734</ele>
        <time>2019-10-30T13:37:02Z</time>
      </trkpt>
      <trkpt lat="43.46681" lon="1.14998">
        <ele>233.32194644108</ele>
        <time>2019-10-30T13:37:07Z</time>
      </trkpt>
      <trkpt lat="43.46674" lon="1.15017">
        <ele>233.01386707006</ele>
        <time>2019-10-30T13:37:19Z</time>
      </trkpt>
      <trkpt lat="43.46671" lon="1.15023">
        <ele>232.91393594481</ele>
        <time>2019-10-30T13:37:23Z</time>
      </trkpt>
      <trkpt lat="43.46668" lon="1.15029">
        <ele>232.78552091366</ele>
        <time>2019-10-30T13:37:28Z</time>
      </trkpt>
      <trkpt lat="43.46665" lon="1.15033">
        <ele>232.70558017033</ele>
        <time>2019-10-30T13:37:31Z</time>
      </trkpt>
      <trkpt lat="43.46662" lon="1.15036">
        <ele>232.62312640455</ele>
        <time>2019-10-30T13:37:34Z</time>
      </trkpt>
      <trkpt lat="43.46657" lon="1.1504">
        <ele>232.51054301778</ele>
        <time>2019-10-30T13:37:38Z</time>
      </trkpt>
      <trkpt lat="43.4665" lon="1.15045">
        <ele>232.35</ele>
        <time>2019-10-30T13:37:45Z</time>
      </trkpt>
      <trkpt lat="43.46626" lon="1.15059">
        <ele>231.89381077826</ele>
        <time>2019-10-30T13:38:06Z</time>
      </trkpt>
      <trkpt lat="43.46618" lon="1.15064">
        <ele>231.70413209701</ele>
        <time>2019-10-30T13:38:12Z</time>
      </trkpt>
      <trkpt lat="43.46608" lon="1.15071">
        <ele>231.3848623175</ele>
        <time>2019-10-30T13:38:21Z</time>
      </trkpt>
      <trkpt lat="43.46589" lon="1.15087">
        <ele>230.33801841138</ele>
        <time>2019-10-30T13:38:40Z</time>
      </trkpt>
      <trkpt lat="43.46571" lon="1.151">
        <ele>228.75</ele>
        <time>2019-10-30T13:38:56Z</time>
      </trkpt>
      <trkpt lat="43.46554" lon="1.15115">
        <ele>226.45278921746</ele>
        <time>2019-10-30T13:39:12Z</time>
      </trkpt>
      <trkpt lat="43.46549" lon="1.15119">
        <ele>225.73987595549</ele>
        <time>2019-10-30T13:39:17Z</time>
      </trkpt>
      <trkpt lat="43.46542" lon="1.15123">
        <ele>224.8395892319</ele>
        <time>2019-10-30T13:39:23Z</time>
      </trkpt>
      <trkpt lat="43.46539" lon="1.15124">
        <ele>224.48812794832</ele>
        <time>2019-10-30T13:39:25Z</time>
      </trkpt>
      <trkpt lat="43.46537" lon="1.15127">
        <ele>224.15950021638</ele>
        <time>2019-10-30T13:39:27Z</time>
      </trkpt>
      <trkpt lat="43.46534" lon="1.1513">
        <ele>223.74940832689</ele>
        <time>2019-10-30T13:39:30Z</time>
      </trkpt>
      <trkpt lat="43.46526" lon="1.15138">
        <ele>222.84895592932</ele>
        <time>2019-10-30T13:39:38Z</time>
      </trkpt>
      <trkpt lat="43.46524" lon="1.1514">
        <ele>222.65</ele>
        <time>2019-10-30T13:39:40Z</time>
      </trkpt>
      <trkpt lat="43.46485" lon="1.14991">
        <ele>225.31666359868</ele>
        <time>2019-10-30T13:41:12Z</time>
      </trkpt>
    </trkseg>
  </trk>
</gpx>